• Join FlightAware (Why Join?)
  • Login
  • US Flag 
10:21AM EDT


 

Airport Tracker/Info


-or-


 

Live Flight TrackerFlight Track Log ✈ UPS1269 ✈ 29-Jan-2014 ✈ KGSO - KSDF

Flight Track Log - Related Links

Times and Time Zones

All times are in EST time to prevent confusion due to time zone crossing. See the UPS1269 flight status page for this flight to view local times or setup timezone preferences in your user account.

Time Position Orientation Groundspeed Altitude Reporting Facility
EST Latitude Longitude Course Direction KTS MPH feet Rate Location/Type
11:34PM 36.1289 -80.0439 307° West 206 237 6,900  Level Atlanta Center
11:35PM 36.1728 -80.1164 307° West 236 272 10,800 2,820 Climbing Atlanta Center
11:36PM 36.2281 -80.2089 307° West 281 323 12,600 2,700 Climbing Atlanta Center
11:37PM 36.2853 -80.3064 306° West 330 380 16,200 3,300 Climbing Atlanta Center
11:38PM 36.3533 -80.4194 307° West 363 418 19,200 2,700 Climbing Atlanta Center
11:39PM 36.4128 -80.5275 304° West 376 433 21,700 2,340 Climbing Atlanta Center
11:40PM 36.4825 -80.6383 308° West 391 450 23,900 2,100 Climbing Atlanta Center
11:41PM 36.5297 -80.7628 295° West 396 456 26,000 2,100 Climbing Atlanta Center
11:42PM 36.5519 -80.8936 282° West 396 456 28,200 1,980 Climbing Atlanta Center
11:43PM 36.5489 -81.0256 268° West 389 448 30,000 900 Climbing Atlanta Center
11:44PM 36.5333 -81.1578 262° West 383 441 30,000  Level Atlanta Center
11:45PM 36.5217 -81.2875 264° West 388 447 30,000  Level Atlanta Center
11:46PM 36.5100 -81.4169 264° West 388 447 30,000  Level Atlanta Center
11:47PM 36.4981 -81.5414 263° West 388 447 30,000  Level Atlanta Center
11:48PM 36.5169 -81.6319 285° West 415 478 30,000  Level Indianapolis Center
11:49PM 36.5642 -81.7592 295° West 404 465 30,000  Level Indianapolis Center
11:50PM 36.6106 -81.8861 295° West 404 465 30,000  Level Indianapolis Center
11:51PM 36.6561 -82.0144 294° West 404 465 30,000  Level Indianapolis Center
11:52PM 36.7011 -82.1417 294° West 402 463 30,000  Level Indianapolis Center
11:53PM 36.7469 -82.2711 294° West 405 466 30,000  Level Indianapolis Center
11:54PM 36.7942 -82.4031 294° West 414 476 30,000  Level Indianapolis Center
11:55PM 36.8483 -82.5572 294° West 415 478 30,000  Level Indianapolis Center
11:56PM 36.8942 -82.6889 294° West 415 478 30,000  Level Indianapolis Center
11:57PM 36.9397 -82.8192 294° West 415 478 30,000  Level Indianapolis Center
11:58PM 36.9847 -82.9489 294° West 424 488 30,000  Level Indianapolis Center
11:59PM 37.0303 -83.0831 293° West 423 487 30,000  Level Indianapolis Center
12:00AM 37.0775 -83.2194 293° West 425 489 30,000  Level Indianapolis Center
12:01AM 37.1244 -83.3567 293° West 428 493 30,000  Level Indianapolis Center
12:02AM 37.1714 -83.4947 293° West 429 494 30,000  Level Indianapolis Center
12:03AM 37.2250 -83.6564 293° West 430 495 30,000  Level Indianapolis Center
12:04AM 37.2725 -83.7933 294° West 428 493 30,000 -600 Level Indianapolis Center
12:05AM 37.3181 -83.9347 292° West 434 499 28,800 -1,800 Descending Indianapolis Center
12:06AM 37.3650 -84.0736 293° West 433 498 26,400 -2,520 Descending Indianapolis Center
12:07AM 37.4128 -84.2172 293° West 440 506 23,800 -2,580 Descending Indianapolis Center
12:08AM 37.4603 -84.3611 293° West 444 511 21,300 -1,980 Descending Indianapolis Center
12:14AM 37.7639 -85.1055 293° West 359 413 9,700 -1,620 Descending FlightAware ADS-B (KBRY)
12:15AM 37.8317 -85.1989 313° West 360 414 9,700  Level FlightAware ADS-B (KBRY)
12:17AM 37.9080 -85.3048 312° West 360 414 9,700  Level FlightAware ADS-B (KBRY)
12:18AM 37.9704 -85.3916 312° West 305 351 9,700 -60 Level FlightAware ADS-B (KBRY)
12:19AM 38.0215 -85.4626 312° West 240 276 9,600 -720 Descending FlightAware ADS-B (KBRY)
12:20AM 38.0655 -85.5250 312° West 230 265 8,300 -1,320 Descending FlightAware ADS-B (KBRY)
12:21AM 38.1093 -85.5815 315° West 229 264 7,000 -1,320 Descending FlightAware ADS-B (KBRY)
12:22AM 38.1679 -85.6085 340° North 224 258 5,700 -1,200 Descending FlightAware ADS-B (KBRY)
12:23AM 38.2275 -85.6345 341° North 226 260 4,700 -540 Descending FlightAware ADS-B (KBRY)
12:24AM 38.2874 -85.6549 345° North 228 262 4,700  Level FlightAware ADS-B (KBRY)
12:25AM 38.3442 -85.6768 343° North 227 261 4,700 -540 Level FlightAware ADS-B (KBRY)
12:25AM 38.3890 -85.7105 329° Northwest 200 230 3,700 -900 Descending FlightAware ADS-B (KBRY)
12:27AM 38.3563 -85.7705 235° Southwest 197 227 2,900 -540 Descending FlightAware ADS-B (KBRY)
12:27AM 38.3139 -85.7739 235° Southwest 213 245 2,600 -240 Descending Indianapolis Center
12:28AM 38.2703 -85.7617 168° South 188 216 2,500 -180 Descending Indianapolis Center
12:29AM 38.2272 -85.7506 169° South 183 211 2,300 -240 Descending Indianapolis Center